ASA390 KSAN-KBOS
Flight info
| Callsign | ASA390 |
|---|---|
| Flight time | N/A |
| Altitude | 35000 |
| Route | ZZOOO4 GBN J18 ABQ KK42Y SLN IRK KG66M ANEWA JHW Q82 PONCT JFUND2 |
| Aircraft | B739/M-SDE2E3FGHIRWXY/LB1 |
Departure
| Time | 2026-04-20 18:49 |
|---|---|
| Airport | San Diego International Airport (KSAN) |
Arrival
| Time | N/A |
|---|---|
| Airport | Boston Logan International Airport (KBOS) |
| Time | Latitude | Longitude | Altitude | Speed | Heading |
|---|---|---|---|---|---|
| 2026-04-20 17:58 | 32.73420 | -117.20074 | 20 ft | 0 kts | 212° |
| 2026-04-20 18:36 | 32.73433 | -117.20064 | 22 ft | 4 kts | 216° |
| 2026-04-20 18:36 | 32.73453 | -117.20046 | 24 ft | 2 kts | 216° |
| 2026-04-20 18:36 | 32.73473 | -117.20031 | 24 ft | 4 kts | 208° |
| 2026-04-20 18:36 | 32.73497 | -117.20021 | 22 ft | 4 kts | 176° |
| 2026-04-20 18:37 | 32.73512 | -117.20030 | 23 ft | 4 kts | 112° |
| 2026-04-20 18:37 | 32.73520 | -117.20060 | 24 ft | 4 kts | 104° |
| 2026-04-20 18:37 | 32.73526 | -117.20084 | 23 ft | 0 kts | 106° |
| 2026-04-20 18:40 | 32.73525 | -117.20083 | 21 ft | 1 kts | 106° |
| 2026-04-20 18:40 | 32.73521 | -117.20065 | 23 ft | 0 kts | 106° |
| 2026-04-20 18:40 | 32.73520 | -117.20063 | 22 ft | 0 kts | 106° |
| 2026-04-20 18:42 | 32.73520 | -117.20061 | 22 ft | 1 kts | 106° |
| 2026-04-20 18:42 | 32.73511 | -117.20026 | 23 ft | 8 kts | 106° |
| 2026-04-20 18:43 | 32.73490 | -117.19938 | 22 ft | 14 kts | 105° |
| 2026-04-20 18:43 | 32.73458 | -117.19809 | 26 ft | 19 kts | 106° |
| 2026-04-20 18:43 | 32.73418 | -117.19639 | 25 ft | 23 kts | 106° |
| 2026-04-20 18:43 | 32.73375 | -117.19462 | 23 ft | 22 kts | 107° |
| 2026-04-20 18:44 | 32.73332 | -117.19290 | 19 ft | 21 kts | 105° |
| 2026-04-20 18:44 | 32.73293 | -117.19123 | 20 ft | 21 kts | 106° |
| 2026-04-20 18:44 | 32.73253 | -117.18961 | 21 ft | 20 kts | 106° |
| 2026-04-20 18:44 | 32.73215 | -117.18805 | 26 ft | 19 kts | 106° |
| 2026-04-20 18:45 | 32.73178 | -117.18652 | 24 ft | 20 kts | 106° |
| 2026-04-20 18:45 | 32.73137 | -117.18481 | 20 ft | 23 kts | 106° |
| 2026-04-20 18:45 | 32.73092 | -117.18297 | 20 ft | 23 kts | 106° |
| 2026-04-20 18:45 | 32.73047 | -117.18111 | 17 ft | 24 kts | 106° |
| 2026-04-20 18:46 | 32.73002 | -117.17928 | 16 ft | 22 kts | 104° |
| 2026-04-20 18:46 | 32.72964 | -117.17770 | 16 ft | 18 kts | 107° |
| 2026-04-20 18:46 | 32.72950 | -117.17702 | 16 ft | 0 kts | 95° |
| 2026-04-20 18:47 | 32.72950 | -117.17701 | 16 ft | 1 kts | 95° |
| 2026-04-20 18:47 | 32.72951 | -117.17686 | 16 ft | 4 kts | 82° |
| 2026-04-20 18:47 | 32.72960 | -117.17627 | 19 ft | 10 kts | 81° |
| 2026-04-20 18:48 | 32.72989 | -117.17544 | 20 ft | 10 kts | 19° |
| 2026-04-20 18:48 | 32.73026 | -117.17601 | 18 ft | 10 kts | 285° |
| 2026-04-20 18:48 | 32.73055 | -117.17720 | 17 ft | 35 kts | 286° |
| 2026-04-20 18:48 | 32.73194 | -117.18294 | 22 ft | 106 kts | 286° |
| 2026-04-20 18:49 | 32.73453 | -117.19371 | 26 ft | 162 kts | 286° |
| 2026-04-20 18:49 | 32.73776 | -117.20742 | 453 ft | 176 kts | 285° |
| 2026-04-20 18:49 | 32.74114 | -117.22148 | 1223 ft | 177 kts | 285° |
| 2026-04-20 18:49 | 32.74468 | -117.23583 | 1885 ft | 187 kts | 286° |
| 2026-04-20 18:50 | 32.74855 | -117.25171 | 2108 ft | 210 kts | 285° |
| 2026-04-20 18:50 | 32.75280 | -117.26924 | 2301 ft | 230 kts | 285° |
| 2026-04-20 18:50 | 32.75731 | -117.28786 | 2757 ft | 238 kts | 285° |
| 2026-04-20 18:50 | 32.76192 | -117.30698 | 3290 ft | 245 kts | 285° |
| 2026-04-20 18:51 | 32.76517 | -117.32688 | 3933 ft | 247 kts | 265° |
| 2026-04-20 18:51 | 32.76046 | -117.34668 | 4348 ft | 259 kts | 236° |
| 2026-04-20 18:51 | 32.74722 | -117.36134 | 4870 ft | 265 kts | 205° |
| 2026-04-20 18:51 | 32.72949 | -117.36620 | 5564 ft | 265 kts | 176° |
| 2026-04-20 18:52 | 32.71194 | -117.36012 | 6250 ft | 267 kts | 147° |
| 2026-04-20 18:52 | 32.69908 | -117.34431 | 6922 ft | 271 kts | 122° |
| 2026-04-20 18:52 | 32.69091 | -117.32398 | 7543 ft | 276 kts | 113° |
| 2026-04-20 18:52 | 32.68408 | -117.30256 | 8167 ft | 280 kts | 112° |
| 2026-04-20 18:53 | 32.67724 | -117.28073 | 8810 ft | 283 kts | 112° |
| 2026-04-20 18:53 | 32.67024 | -117.25874 | 9470 ft | 286 kts | 112° |
| 2026-04-20 18:53 | 32.66300 | -117.23656 | 10091 ft | 290 kts | 113° |
| 2026-04-20 18:53 | 32.65543 | -117.21371 | 10351 ft | 308 kts | 113° |
| 2026-04-20 18:54 | 32.64724 | -117.18929 | 10507 ft | 328 kts | 113° |
| 2026-04-20 18:54 | 32.63852 | -117.16344 | 10651 ft | 347 kts | 113° |